createdAt,value
2022-12-08T00:01:23.270Z,2.94
2022-12-08T00:03:50.573Z,2.95
2022-12-08T00:06:41.679Z,2.99
2022-12-08T00:09:22.561Z,3.00
2022-12-08T00:11:53.543Z,2.98
2022-12-08T00:14:22.445Z,2.95
2022-12-08T00:16:50.145Z,2.99
2022-12-08T00:19:16.706Z,2.89
2022-12-08T00:21:43.198Z,2.98
2022-12-08T00:24:09.763Z,3.03
2022-12-08T00:26:36.949Z,2.85
2022-12-08T00:29:03.602Z,2.95
2022-12-08T00:31:30.207Z,2.88
2022-12-08T00:33:57.608Z,2.85
2022-12-08T00:36:24.186Z,2.81
2022-12-08T00:38:50.697Z,2.83
2022-12-08T00:41:39.703Z,2.78
2022-12-08T00:44:07.793Z,2.71
2022-12-08T00:46:34.379Z,2.78
2022-12-08T00:49:00.934Z,2.65
2022-12-08T00:51:27.532Z,2.78
2022-12-08T00:53:54.076Z,2.75
2022-12-08T00:56:20.609Z,2.79
2022-12-08T00:58:47.125Z,2.82
2022-12-08T01:01:15.043Z,2.70
2022-12-08T01:03:42.886Z,2.78
2022-12-08T01:06:10.337Z,2.60
2022-12-08T01:08:38.230Z,2.61
2022-12-08T01:11:11.285Z,2.70
2022-12-08T01:13:37.922Z,2.60
2022-12-08T01:16:05.018Z,2.39
2022-12-08T01:18:32.314Z,2.53
2022-12-08T01:21:07.120Z,2.42
2022-12-08T01:23:34.751Z,2.57
2022-12-08T01:26:03.509Z,2.54
2022-12-08T01:28:31.039Z,2.45
2022-12-08T01:30:58.885Z,2.58
2022-12-08T01:33:25.707Z,2.60
2022-12-08T01:35:52.823Z,2.57
2022-12-08T01:38:19.711Z,2.61
2022-12-08T01:40:46.207Z,2.53
2022-12-08T01:43:18.260Z,2.47
2022-12-08T01:45:44.852Z,2.57
2022-12-08T01:48:20.218Z,2.60
2022-12-08T01:50:48.870Z,2.61
2022-12-08T01:53:22.871Z,2.49
2022-12-08T01:55:59.638Z,2.47
2022-12-08T01:58:31.643Z,2.35
2022-12-08T02:00:58.470Z,2.27
2022-12-08T02:03:51.792Z,2.44
2022-12-08T02:06:20.030Z,2.39
2022-12-08T02:08:47.728Z,2.34
2022-12-08T02:11:14.317Z,2.37
2022-12-08T02:13:43.155Z,2.26
2022-12-08T02:16:37.337Z,2.35
2022-12-08T02:19:34.288Z,2.27
2022-12-08T02:22:12.956Z,2.24
2022-12-08T02:25:01.144Z,2.27
2022-12-08T02:27:30.819Z,2.22
2022-12-08T02:30:09.183Z,2.29
2022-12-08T02:33:05.297Z,2.31
2022-12-08T02:35:36.625Z,2.37
2022-12-08T02:38:27.666Z,2.37
2022-12-08T02:41:07.059Z,2.36
2022-12-08T02:43:44.269Z,2.52
2022-12-08T02:46:22.694Z,2.52
2022-12-08T02:48:51.591Z,2.59
2022-12-08T02:51:19.555Z,2.64
2022-12-08T02:53:47.832Z,2.64
2022-12-08T02:56:23.133Z,2.64
2022-12-08T02:59:37.686Z,2.65
2022-12-08T03:02:34.595Z,2.67
2022-12-08T03:05:19.742Z,2.69
2022-12-08T03:07:58.437Z,2.66
2022-12-08T03:10:30.526Z,2.66
2022-12-08T03:13:04.421Z,2.56
2022-12-08T03:15:32.537Z,2.66
2022-12-08T03:18:00.868Z,2.69
2022-12-08T03:20:30.138Z,2.72
2022-12-08T03:23:00.203Z,2.66
2022-12-08T03:25:31.142Z,2.70
2022-12-08T03:27:59.136Z,2.64
2022-12-08T03:30:29.457Z,2.72
2022-12-08T03:33:07.149Z,2.65
2022-12-08T03:35:37.258Z,2.72
2022-12-08T03:38:14.195Z,2.68
2022-12-08T03:40:41.384Z,2.78
2022-12-08T03:43:08.096Z,2.79
2022-12-08T03:45:34.889Z,2.81
2022-12-08T03:48:01.726Z,2.84
2022-12-08T03:50:28.351Z,2.81
2022-12-08T03:52:54.914Z,2.82
2022-12-08T03:55:21.562Z,2.79
2022-12-08T03:57:48.071Z,2.74
2022-12-08T04:00:16.931Z,2.65
2022-12-08T04:02:43.535Z,2.73
2022-12-08T04:05:10.144Z,2.80
2022-12-08T04:07:36.836Z,2.76
2022-12-08T04:10:04.994Z,2.76
2022-12-08T04:12:31.913Z,2.80
2022-12-08T04:14:58.414Z,2.75
2022-12-08T04:17:24.999Z,2.84
2022-12-08T04:19:51.535Z,2.84
2022-12-08T04:22:18.047Z,2.72
2022-12-08T04:24:44.554Z,2.78
2022-12-08T04:27:11.040Z,2.81
2022-12-08T04:29:37.553Z,2.73
2022-12-08T04:32:04.388Z,2.78
2022-12-08T04:34:30.900Z,2.74
2022-12-08T04:36:57.491Z,2.75
2022-12-08T04:39:24.166Z,2.82
2022-12-08T04:41:50.689Z,2.81
2022-12-08T04:44:17.350Z,2.82
2022-12-08T04:46:44.040Z,2.59
2022-12-08T04:49:10.777Z,2.73
2022-12-08T04:51:37.327Z,2.67
2022-12-08T04:54:03.976Z,2.68
2022-12-08T04:56:30.694Z,2.72
2022-12-08T04:58:57.197Z,2.64
2022-12-08T05:01:23.756Z,2.55
2022-12-08T05:03:50.346Z,2.64
2022-12-08T05:06:17.023Z,2.72
2022-12-08T05:08:44.048Z,2.72
2022-12-08T05:11:11.958Z,2.64
2022-12-08T05:13:38.483Z,2.77
2022-12-08T05:16:07.327Z,2.66
2022-12-08T05:18:34.640Z,2.64
2022-12-08T05:21:01.430Z,2.62
2022-12-08T05:23:28.572Z,2.55
2022-12-08T05:25:55.139Z,2.60
2022-12-08T05:31:08.927Z,2.50
2022-12-08T05:33:35.457Z,2.43
2022-12-08T05:36:01.957Z,2.56
2022-12-08T05:38:29.449Z,2.52
2022-12-08T05:40:55.951Z,2.42
2022-12-08T05:43:22.529Z,2.57
2022-12-08T05:45:49.108Z,2.55
2022-12-08T05:48:15.938Z,2.63
2022-12-08T05:50:49.654Z,2.61
2022-12-08T05:53:18.057Z,2.61
2022-12-08T05:55:45.271Z,2.63
2022-12-08T05:58:17.254Z,2.48
2022-12-08T06:00:44.502Z,2.48
2022-12-08T06:03:16.441Z,2.61
2022-12-08T06:05:44.185Z,2.61
2022-12-08T06:08:11.340Z,2.47
2022-12-08T06:10:39.813Z,2.22
2022-12-08T06:13:06.504Z,2.45
2022-12-08T06:15:35.271Z,2.57
2022-12-08T06:18:01.829Z,2.60
2022-12-08T06:20:28.440Z,2.60
2022-12-08T06:22:55.514Z,2.47
2022-12-08T06:25:22.437Z,2.50
2022-12-08T06:27:49.000Z,2.59
2022-12-08T06:30:16.453Z,2.63
2022-12-08T06:32:43.385Z,2.72
2022-12-08T06:35:10.048Z,2.72
2022-12-08T06:37:37.240Z,2.86
2022-12-08T06:40:04.482Z,2.88
2022-12-08T06:42:47.202Z,2.80
2022-12-08T06:45:17.875Z,2.92
2022-12-08T06:47:44.603Z,2.98
2022-12-08T06:50:12.600Z,2.97
2022-12-08T06:52:49.282Z,3.01
2022-12-08T06:55:42.489Z,3.05
2022-12-08T06:58:06.688Z,3.02
2022-12-08T07:00:33.190Z,3.02
2022-12-08T07:02:59.791Z,2.98
2022-12-08T07:05:26.312Z,2.92
2022-12-08T07:07:52.857Z,2.92
2022-12-08T07:10:19.467Z,2.91
2022-12-08T07:12:45.987Z,2.91
2022-12-08T07:15:12.563Z,2.88
2022-12-08T07:17:39.054Z,2.82
2022-12-08T07:20:06.821Z,2.83
2022-12-08T07:22:33.653Z,2.78
2022-12-08T07:25:00.167Z,2.79
2022-12-08T07:27:26.681Z,2.75
2022-12-08T07:29:53.183Z,2.73
2022-12-08T07:32:19.721Z,2.66
2022-12-08T07:34:47.287Z,2.64
2022-12-08T07:37:14.040Z,2.66
2022-12-08T07:39:40.564Z,2.62
2022-12-08T07:42:07.098Z,2.63
2022-12-08T07:44:33.626Z,2.63
2022-12-08T07:47:00.121Z,2.57
2022-12-08T07:49:26.638Z,2.62
2022-12-08T07:51:53.173Z,2.67
2022-12-08T07:54:19.719Z,2.62
2022-12-08T07:56:46.220Z,2.64
2022-12-08T07:59:12.838Z,2.49
2022-12-08T08:01:39.642Z,2.64
2022-12-08T08:04:06.559Z,2.53
2022-12-08T08:06:35.106Z,2.48
2022-12-08T08:09:01.880Z,2.51
2022-12-08T08:11:28.387Z,2.60
2022-12-08T08:13:55.031Z,2.55
2022-12-08T08:16:21.902Z,2.41
2022-12-08T08:18:50.297Z,2.63
2022-12-08T08:24:05.059Z,2.86
2022-12-08T08:26:31.639Z,2.80
2022-12-08T08:28:58.133Z,2.79
2022-12-08T08:31:28.101Z,2.93
2022-12-08T08:33:56.465Z,2.95
2022-12-08T08:36:23.031Z,2.90
2022-12-08T08:38:49.718Z,2.82
2022-12-08T08:41:16.216Z,2.92
2022-12-08T08:43:42.765Z,2.89
2022-12-08T08:46:10.351Z,2.91
2022-12-08T08:48:37.720Z,2.95
2022-12-08T08:51:12.037Z,2.83
2022-12-08T08:53:38.920Z,2.94
2022-12-08T08:56:15.585Z,2.88
2022-12-08T08:58:42.491Z,2.94
2022-12-08T09:01:09.125Z,2.88
2022-12-08T09:03:35.677Z,2.82
2022-12-08T09:06:02.228Z,2.95
2022-12-08T09:08:28.959Z,2.96
2022-12-08T09:10:55.628Z,2.91
2022-12-08T09:13:22.380Z,3.08
2022-12-08T09:15:49.297Z,3.27
2022-12-08T09:18:15.881Z,3.42
2022-12-08T09:20:42.514Z,3.44
2022-12-08T09:23:09.085Z,3.56
2022-12-08T09:25:35.608Z,3.60
2022-12-08T09:28:02.108Z,3.55
2022-12-08T09:30:28.663Z,3.57
2022-12-08T09:32:55.273Z,3.45
2022-12-08T09:35:21.884Z,3.46
2022-12-08T09:37:48.421Z,3.58
2022-12-08T09:40:18.948Z,3.70
2022-12-08T09:43:03.835Z,3.75
2022-12-08T09:45:35.268Z,3.74
2022-12-08T09:48:24.188Z,3.72
2022-12-08T09:50:56.793Z,3.73
2022-12-08T09:53:35.269Z,3.77
2022-12-08T09:56:14.130Z,3.80
2022-12-08T09:59:01.571Z,3.81
2022-12-08T10:01:32.054Z,3.79
2022-12-08T10:03:59.357Z,3.78
2022-12-08T10:06:40.716Z,3.86
2022-12-08T10:09:27.660Z,3.92
2022-12-08T10:12:03.539Z,4.00
2022-12-08T10:14:43.764Z,4.17
2022-12-08T10:17:32.042Z,4.38
2022-12-08T10:20:22.347Z,4.80
2022-12-08T10:23:14.970Z,4.78
2022-12-08T10:25:45.365Z,5.00
2022-12-08T10:28:13.033Z,4.99
2022-12-08T10:30:39.814Z,4.89
2022-12-08T10:33:14.398Z,5.11
2022-12-08T10:35:54.349Z,5.02
2022-12-08T10:38:31.227Z,5.04
2022-12-08T10:41:09.919Z,4.97
2022-12-08T10:43:49.889Z,5.08
2022-12-08T10:46:28.516Z,5.05
2022-12-08T10:49:13.078Z,5.29
2022-12-08T10:51:41.755Z,5.41
2022-12-08T10:54:32.725Z,5.43
2022-12-08T10:56:59.406Z,4.96
2022-12-08T10:59:26.418Z,4.77
2022-12-08T11:01:55.457Z,4.78
2022-12-08T11:04:33.898Z,4.86
2022-12-08T11:07:00.678Z,4.97
2022-12-08T11:09:49.096Z,4.75
2022-12-08T11:12:21.374Z,5.05
2022-12-08T11:15:09.792Z,5.42
2022-12-08T11:17:40.706Z,5.20
2022-12-08T11:20:10.252Z,5.41
2022-12-08T11:22:40.738Z,5.47
2022-12-08T11:25:25.331Z,5.44
2022-12-08T11:27:58.965Z,5.77
2022-12-08T11:30:31.168Z,5.86
2022-12-08T11:33:03.382Z,5.94
2022-12-08T11:35:37.296Z,5.44
2022-12-08T11:38:22.691Z,5.49
2022-12-08T11:41:16.620Z,5.41
2022-12-08T11:44:08.231Z,5.30
2022-12-08T11:46:43.210Z,5.24
2022-12-08T11:49:12.293Z,5.22
2022-12-08T11:51:51.000Z,5.32
2022-12-08T11:54:32.726Z,5.31
2022-12-08T11:57:01.851Z,5.33
2022-12-08T11:59:54.400Z,5.35
2022-12-08T12:02:23.901Z,5.44
2022-12-08T12:05:10.660Z,5.57
2022-12-08T12:07:54.425Z,5.60
2022-12-08T12:10:26.852Z,5.77
2022-12-08T12:13:05.532Z,5.66
2022-12-08T12:16:03.084Z,5.18
2022-12-08T12:18:47.231Z,5.31
2022-12-08T12:21:33.946Z,5.47
2022-12-08T12:24:15.410Z,5.45
2022-12-08T12:27:20.173Z,5.51
2022-12-08T12:29:55.437Z,5.52
2022-12-08T12:32:23.267Z,5.49
2022-12-08T12:34:56.760Z,5.53
2022-12-08T12:37:24.863Z,5.24
2022-12-08T12:40:03.840Z,5.24
2022-12-08T12:42:44.327Z,5.22
2022-12-08T12:45:33.122Z,5.25
2022-12-08T12:47:59.977Z,5.16
2022-12-08T12:50:48.640Z,5.06
2022-12-08T12:53:18.904Z,4.89
2022-12-08T12:55:45.388Z,5.10
2022-12-08T12:58:30.409Z,5.08
2022-12-08T13:01:12.465Z,5.30
2022-12-08T13:03:49.788Z,5.20
2022-12-08T13:06:25.249Z,5.20
2022-12-08T13:08:55.182Z,5.24
2022-12-08T13:11:23.463Z,5.38
2022-12-08T13:14:03.443Z,5.42
2022-12-08T13:16:37.386Z,5.35
2022-12-08T13:19:05.953Z,5.21
2022-12-08T13:21:36.559Z,5.34
2022-12-08T13:24:19.844Z,5.37
2022-12-08T13:26:48.603Z,5.23
2022-12-08T13:29:15.362Z,5.35
2022-12-08T13:32:03.364Z,5.33
2022-12-08T13:34:48.358Z,5.35
2022-12-08T13:37:25.172Z,5.30
2022-12-08T13:39:57.995Z,5.09
2022-12-08T13:42:48.567Z,5.28
2022-12-08T13:45:48.792Z,5.16
2022-12-08T13:57:35.865Z,4.62
2022-12-08T14:00:07.439Z,4.59
2022-12-08T14:02:42.050Z,4.59
2022-12-08T14:05:26.632Z,4.45
2022-12-08T14:07:59.583Z,4.40
2022-12-08T14:10:30.395Z,4.37
2022-12-08T14:13:00.727Z,4.28
2022-12-08T14:15:30.221Z,4.26
2022-12-08T14:18:00.794Z,4.16
2022-12-08T14:20:29.973Z,4.13
2022-12-08T14:22:58.978Z,4.00
2022-12-08T14:25:29.596Z,4.03
2022-12-08T14:28:01.724Z,3.90
2022-12-08T14:30:32.497Z,3.81
2022-12-08T14:33:02.120Z,3.74
2022-12-08T14:35:37.051Z,3.67
2022-12-08T14:38:23.498Z,3.57
2022-12-08T14:41:11.844Z,3.56
2022-12-08T14:43:40.805Z,3.40
2022-12-08T14:46:21.971Z,3.45
2022-12-08T14:48:48.701Z,3.27
2022-12-08T14:51:21.342Z,3.21
2022-12-08T14:53:52.512Z,3.30
2022-12-08T14:56:19.468Z,3.07
2022-12-08T14:58:47.287Z,3.06
2022-12-08T15:01:17.106Z,3.06
2022-12-08T15:03:50.464Z,3.05
2022-12-08T15:06:20.858Z,3.16
2022-12-08T15:08:53.195Z,3.26
2022-12-08T15:11:22.669Z,3.32
2022-12-08T15:13:50.370Z,3.29
2022-12-08T15:16:43.959Z,3.17
2022-12-08T15:19:29.700Z,3.17
2022-12-08T15:22:15.647Z,3.00
2022-12-08T15:24:42.189Z,3.05
2022-12-08T15:27:18.546Z,2.87
2022-12-08T15:29:47.650Z,2.74
2022-12-08T15:32:18.766Z,2.66
2022-12-08T15:34:45.435Z,2.70
2022-12-08T15:37:21.820Z,2.95
2022-12-08T15:39:48.944Z,3.00
2022-12-08T15:42:15.683Z,2.98
2022-12-08T15:44:42.665Z,2.97
2022-12-08T15:47:21.179Z,3.07
2022-12-08T15:49:49.685Z,3.17
2022-12-08T15:52:19.136Z,3.06
2022-12-08T15:54:46.187Z,3.13
2022-12-08T16:00:50.636Z,3.18
2022-12-08T16:03:49.431Z,3.11
2022-12-08T16:09:11.965Z,3.03
2022-12-08T16:12:06.366Z,3.11
2022-12-08T16:15:39.714Z,3.03
2022-12-08T16:17:21.257Z,2.97
2022-12-08T16:19:47.823Z,3.07
2022-12-08T16:25:18.129Z,3.27
2022-12-08T16:30:33.136Z,3.18
2022-12-08T16:32:59.663Z,3.25
2022-12-08T16:35:26.291Z,3.32
2022-12-08T16:37:52.901Z,3.35
2022-12-08T16:40:19.565Z,3.35
2022-12-08T16:42:48.395Z,3.32
2022-12-08T16:45:20.185Z,3.40
2022-12-08T16:47:50.880Z,3.44
2022-12-08T16:50:29.166Z,3.53
2022-12-08T16:53:05.845Z,3.44
2022-12-08T16:55:33.088Z,3.60
2022-12-08T16:57:59.926Z,3.56
2022-12-08T17:00:29.125Z,3.64
2022-12-08T17:02:55.854Z,3.64
2022-12-08T17:05:24.447Z,3.60
2022-12-08T17:07:52.583Z,3.69
2022-12-08T17:10:22.991Z,3.54
2022-12-08T17:12:50.324Z,3.65
2022-12-08T17:15:20.814Z,3.59
2022-12-08T17:17:47.611Z,3.59
2022-12-08T17:20:19.944Z,3.67
2022-12-08T17:22:47.609Z,3.56
2022-12-08T17:25:14.302Z,3.59
2022-12-08T17:27:41.814Z,3.61
2022-12-08T17:30:11.656Z,3.64
2022-12-08T17:32:38.924Z,3.63
2022-12-08T17:35:07.179Z,3.61
2022-12-08T17:37:33.993Z,3.66
2022-12-08T17:40:00.955Z,3.63
2022-12-08T17:42:27.559Z,3.62
2022-12-08T17:44:54.573Z,3.62
2022-12-08T17:47:21.345Z,3.60
2022-12-08T17:49:47.939Z,3.61
2022-12-08T17:52:14.466Z,3.57
2022-12-08T17:54:41.175Z,3.63
2022-12-08T17:57:07.706Z,3.60
2022-12-08T17:59:34.250Z,3.53
2022-12-08T18:02:01.347Z,3.63
2022-12-08T18:04:28.229Z,3.67
2022-12-08T18:06:55.094Z,3.69
2022-12-08T18:09:21.763Z,3.57
2022-12-08T18:11:48.451Z,3.64
2022-12-08T18:14:15.965Z,3.69
2022-12-08T18:16:46.789Z,3.67
2022-12-08T18:19:14.255Z,3.74
2022-12-08T18:21:41.581Z,3.71
2022-12-08T18:24:14.546Z,3.68
2022-12-08T18:26:41.075Z,3.71
2022-12-08T18:29:07.612Z,3.71
2022-12-08T18:31:34.186Z,3.66
2022-12-08T18:34:00.724Z,3.72
2022-12-08T18:36:27.240Z,3.74
2022-12-08T18:38:53.916Z,3.64
2022-12-08T18:41:24.597Z,3.60
2022-12-08T18:43:55.299Z,3.63
2022-12-08T18:46:22.362Z,3.54
2022-12-08T18:48:50.434Z,3.67
2022-12-08T18:51:22.741Z,3.71
2022-12-08T18:53:50.339Z,3.63
2022-12-08T18:56:31.890Z,3.67
2022-12-08T18:59:03.508Z,3.64
2022-12-08T19:01:32.147Z,3.68
2022-12-08T19:04:29.210Z,3.68
2022-12-08T19:06:46.291Z,3.69
2022-12-08T19:09:14.047Z,3.69
2022-12-08T19:11:41.713Z,3.69
2022-12-08T19:14:09.046Z,3.71
2022-12-08T19:16:35.911Z,3.71
2022-12-08T19:19:03.822Z,3.65
2022-12-08T19:21:32.526Z,3.69
2022-12-08T19:23:59.994Z,3.71
2022-12-08T19:26:28.168Z,3.71
2022-12-08T19:28:54.774Z,3.72
2022-12-08T19:31:21.668Z,3.71
2022-12-08T19:33:48.296Z,3.72
2022-12-08T19:36:17.831Z,3.72
2022-12-08T19:39:02.866Z,3.70
2022-12-08T19:41:48.201Z,3.75
2022-12-08T19:44:26.446Z,3.75
2022-12-08T19:46:53.113Z,3.72
2022-12-08T19:49:19.787Z,3.74
2022-12-08T19:51:46.279Z,3.76
2022-12-08T19:54:12.831Z,3.71
2022-12-08T19:56:39.368Z,3.66
2022-12-08T19:59:06.000Z,3.75
2022-12-08T20:01:32.537Z,3.64
2022-12-08T20:03:59.240Z,3.70
2022-12-08T20:06:26.691Z,3.72
2022-12-08T20:08:54.111Z,3.74
2022-12-08T20:11:21.085Z,3.66
2022-12-08T20:13:47.937Z,3.66
2022-12-08T20:16:16.088Z,3.61
2022-12-08T20:18:44.141Z,3.64
2022-12-08T20:21:12.122Z,3.67
2022-12-08T20:23:38.776Z,3.64
2022-12-08T20:26:07.360Z,3.66
2022-12-08T20:28:35.403Z,3.58
2022-12-08T20:31:02.599Z,3.56
2022-12-08T20:33:29.767Z,3.48
2022-12-08T20:36:05.725Z,3.41
2022-12-08T20:38:32.252Z,3.40
2022-12-08T20:40:59.223Z,3.41
2022-12-08T20:43:26.683Z,3.41
2022-12-08T20:45:53.214Z,3.34
2022-12-08T20:48:19.891Z,3.33
2022-12-08T20:50:46.653Z,3.29
2022-12-08T20:53:13.216Z,3.14
2022-12-08T20:55:42.667Z,3.02
2022-12-08T20:58:09.093Z,3.06
2022-12-08T21:00:35.613Z,2.98
2022-12-08T21:03:02.227Z,3.12
2022-12-08T21:05:29.014Z,3.09
2022-12-08T21:07:55.779Z,2.99
2022-12-08T21:10:22.491Z,3.01
2022-12-08T21:12:49.144Z,3.03
2022-12-08T21:15:15.917Z,3.07
2022-12-08T21:17:42.618Z,3.02
2022-12-08T21:20:10.172Z,3.04
2022-12-08T21:22:37.248Z,2.99
2022-12-08T21:25:04.125Z,2.94
2022-12-08T21:27:30.820Z,2.87
2022-12-08T21:29:57.428Z,2.82
2022-12-08T21:32:28.772Z,2.96
2022-12-08T21:34:56.744Z,2.99
2022-12-08T21:37:24.329Z,3.00
2022-12-08T21:39:51.213Z,2.92
2022-12-08T21:42:36.492Z,2.93
2022-12-08T21:45:04.130Z,2.77
2022-12-08T21:47:30.782Z,2.89
2022-12-08T21:49:57.409Z,2.93
2022-12-08T21:52:24.200Z,2.93
2022-12-08T21:54:50.931Z,2.80
2022-12-08T21:57:17.657Z,2.66
2022-12-08T21:59:44.411Z,2.66
2022-12-08T22:02:19.609Z,2.55
2022-12-08T22:04:49.841Z,2.75
2022-12-08T22:07:16.701Z,2.56
2022-12-08T22:09:43.332Z,2.56
2022-12-08T22:12:11.928Z,2.24
2022-12-08T22:14:39.936Z,2.18
2022-12-08T22:17:07.339Z,2.48
2022-12-08T22:19:34.088Z,2.36
2022-12-08T22:22:00.778Z,2.39
2022-12-08T22:24:30.240Z,2.32
2022-12-08T22:26:56.805Z,2.35
2022-12-08T22:29:23.385Z,2.17
2022-12-08T22:31:50.002Z,2.23
2022-12-08T22:34:16.704Z,2.23
2022-12-08T22:36:44.464Z,2.23
2022-12-08T22:39:11.437Z,2.37
2022-12-08T22:41:38.219Z,2.05
2022-12-08T22:44:08.855Z,1.98
2022-12-08T22:46:35.899Z,2.28
2022-12-08T22:49:02.748Z,2.36
2022-12-08T22:51:29.362Z,2.34
2022-12-08T22:53:56.033Z,2.46
2022-12-08T22:56:22.834Z,2.64
2022-12-08T22:58:49.872Z,2.45
2022-12-08T23:01:22.538Z,2.58
2022-12-08T23:03:49.431Z,2.24
2022-12-08T23:06:17.569Z,2.49
2022-12-08T23:08:45.102Z,2.49
2022-12-08T23:11:12.229Z,2.32
2022-12-08T23:13:39.835Z,2.29
2022-12-08T23:16:10.536Z,2.25
2022-12-08T23:18:39.917Z,2.15
2022-12-08T23:21:09.147Z,2.07
2022-12-08T23:23:36.174Z,2.00
2022-12-08T23:26:04.201Z,2.09
2022-12-08T23:28:31.034Z,2.13
2022-12-08T23:30:57.739Z,2.10
2022-12-08T23:33:24.345Z,2.11
2022-12-08T23:35:58.121Z,2.05
2022-12-08T23:38:25.449Z,2.39
2022-12-08T23:40:52.816Z,2.42
2022-12-08T23:43:19.793Z,2.13
2022-12-08T23:45:48.378Z,2.09
2022-12-08T23:48:15.502Z,2.12
2022-12-08T23:50:42.040Z,2.16
2022-12-08T23:53:08.548Z,2.05
2022-12-08T23:55:35.303Z,2.09
2022-12-08T23:58:01.953Z,2.35
